Time;durP1;ratioP1;P1;durP2;ratioP2;P2;SDS_P1;SDS_P2;PMS_P1;PMS_P2;Temp;Humidity;BMP_temperature;BMP_pressure;BME280_temperature;BME280_humidity;BME280_pressure;Samples;Min_cycle;Max_cycle;Signal;HPM_P1;HPM_P2
2022/11/11 00:00:37;;;;;;;19.23;9.05;;;3.70;99.90;;;;;;5035402;28;20037;-66
2022/11/11 00:03:03;;;;;;;22.23;9.90;;;3.60;99.90;;;;;;5046355;28;20060;-66
2022/11/11 00:05:32;;;;;;;25.08;9.38;;;3.60;99.90;;;;;;5039636;28;20104;-64
2022/11/11 00:07:58;;;;;;;16.80;8.32;;;3.50;99.90;;;;;;5036444;28;20045;-66
2022/11/11 00:10:25;;;;;;;17.67;8.80;;;3.60;99.90;;;;;;5044980;28;20040;-65
2022/11/11 00:12:51;;;;;;;16.35;8.00;;;3.60;99.90;;;;;;5030246;28;20036;-64
2022/11/11 00:15:16;;;;;;;31.80;9.07;;;3.60;99.90;;;;;;5039703;28;20363;-67
2022/11/11 00:26:06;;;;;;;19.40;8.52;;;3.30;99.90;;;;;;5029367;28;20140;-71
2022/11/11 00:28:31;;;;;;;22.48;9.20;;;3.30;99.90;;;;;;5042021;28;20470;-66
2022/11/11 00:31:05;;;;;;;20.15;9.40;;;3.20;99.90;;;;;;5043883;28;20022;-66
2022/11/11 00:33:32;;;;;;;23.38;10.02;;;3.20;99.90;;;;;;5044186;28;20036;-67
2022/11/11 00:35:58;;;;;;;16.63;8.32;;;3.20;99.90;;;;;;5047824;28;20111;-67
2022/11/11 00:41:09;;;;;;;17.70;8.23;;;3.10;99.90;;;;;;5048954;28;20504;-69
2022/11/11 00:43:35;;;;;;;19.50;8.00;;;3.10;99.90;;;;;;5025037;28;20562;-70
2022/11/11 00:51:31;;;;;;;16.60;8.00;;;3.10;99.90;;;;;;5042280;28;20127;-67
2022/11/11 00:53:57;;;;;;;14.57;7.57;;;3.10;99.90;;;;;;5027564;28;20418;-65
2022/11/11 00:56:23;;;;;;;14.35;7.03;;;3.20;99.90;;;;;;5030155;28;20041;-66
2022/11/11 00:58:49;;;;;;;16.48;7.13;;;3.20;99.90;;;;;;5040088;28;20025;-73
2022/11/11 01:01:15;;;;;;;16.00;8.00;;;3.20;99.90;;;;;;5042096;28;20048;-67
2022/11/11 01:03:41;;;;;;;14.98;7.95;;;3.20;99.90;;;;;;5030991;28;20030;-67
2022/11/11 01:06:08;;;;;;;15.20;7.55;;;3.10;99.90;;;;;;5041917;28;20048;-65
2022/11/11 01:08:34;;;;;;;16.25;7.47;;;3.00;99.90;;;;;;5034342;28;20024;-65
2022/11/11 01:10:59;;;;;;;34.85;7.78;;;3.00;99.90;;;;;;5045077;28;20111;-67
2022/11/11 01:13:26;;;;;;;14.38;7.15;;;2.90;99.90;;;;;;5038682;28;20028;-66
2022/11/11 01:15:58;;;;;;;17.33;7.47;;;2.80;99.90;;;;;;5048821;28;20037;-73
2022/11/11 01:18:25;;;;;;;12.02;6.88;;;2.80;99.90;;;;;;5019876;28;20037;-68
2022/11/11 01:21:09;;;;;;;15.88;7.03;;;2.70;99.90;;;;;;5031331;28;20033;-73
2022/11/11 01:23:38;;;;;;;17.30;8.27;;;2.70;99.90;;;;;;5026872;28;20125;-66
2022/11/11 01:26:06;;;;;;;13.77;7.53;;;2.80;99.90;;;;;;5027969;28;20029;-67
2022/11/11 01:28:32;;;;;;;16.48;7.55;;;2.80;99.90;;;;;;5038423;28;20464;-66
2022/11/11 01:31:01;;;;;;;14.10;7.78;;;2.90;99.90;;;;;;5028846;28;20073;-66
2022/11/11 01:33:27;;;;;;;17.90;7.50;;;2.90;99.90;;;;;;5030183;28;20041;-66
2022/11/11 01:35:52;;;;;;;18.50;8.77;;;2.90;99.90;;;;;;5031205;28;20036;-73
2022/11/11 01:38:18;;;;;;;16.40;7.15;;;3.00;99.90;;;;;;5045136;28;20036;-65
2022/11/11 01:40:46;;;;;;;13.90;6.90;;;2.80;99.90;;;;;;5046064;28;20069;-67
2022/11/11 01:43:12;;;;;;;13.73;7.07;;;2.80;99.90;;;;;;5045589;28;20039;-66
2022/11/11 01:45:48;;;;;;;17.52;7.40;;;2.80;99.90;;;;;;5046752;28;20040;-66
2022/11/11 01:51:19;;;;;;;14.43;7.05;;;2.80;99.90;;;;;;5024700;28;20496;-67
2022/11/11 01:53:48;;;;;;;14.10;7.38;;;2.80;99.90;;;;;;5043856;28;20474;-66
2022/11/11 01:56:14;;;;;;;14.75;7.30;;;2.80;99.90;;;;;;5047918;28;20029;-68
2022/11/11 01:58:39;;;;;;;13.55;7.32;;;2.80;99.90;;;;;;5027518;28;20029;-68
2022/11/11 02:01:05;;;;;;;16.08;7.30;;;2.80;99.90;;;;;;5032650;28;20378;-67
2022/11/11 02:03:35;;;;;;;14.82;7.35;;;2.90;99.90;;;;;;5043201;28;20430;-67
2022/11/11 02:06:01;;;;;;;12.75;6.97;;;2.80;99.90;;;;;;5042172;28;20040;-67
2022/11/11 02:08:31;;;;;;;14.60;6.75;;;2.70;99.90;;;;;;5044974;28;20401;-66
2022/11/11 02:11:11;;;;;;;12.40;6.78;;;2.60;99.90;;;;;;5046574;28;20481;-66
2022/11/11 02:16:24;;;;;;;15.13;6.97;;;2.60;99.90;;;;;;5034543;28;20754;-66
2022/11/11 02:18:50;;;;;;;12.05;6.22;;;2.60;99.90;;;;;;5035068;28;20033;-67
2022/11/11 02:21:39;;;;;;;15.50;7.15;;;2.60;99.90;;;;;;5030700;28;20080;-67
2022/11/11 02:24:14;;;;;;;14.80;7.25;;;2.60;99.90;;;;;;5047460;28;20049;-67
2022/11/11 02:26:43;;;;;;;14.60;7.38;;;2.60;99.90;;;;;;5031021;28;20037;-69
2022/11/11 02:29:17;;;;;;;14.60;7.03;;;2.60;99.90;;;;;;5047058;28;20043;-71
2022/11/11 02:31:43;;;;;;;15.77;6.70;;;2.60;99.90;;;;;;5057101;28;20644;-67
2022/11/11 02:34:08;;;;;;;12.85;6.80;;;2.50;99.90;;;;;;5028199;28;20057;-66
2022/11/11 02:36:35;;;;;;;14.65;7.15;;;2.50;99.90;;;;;;5027045;28;20064;-66
2022/11/11 02:39:00;;;;;;;15.98;7.93;;;2.60;99.90;;;;;;5037741;28;20033;-67
2022/11/11 02:44:10;;;;;;;14.60;6.82;;;2.70;99.90;;;;;;5030424;28;20732;-67
2022/11/11 02:46:36;;;;;;;13.95;6.53;;;2.70;99.90;;;;;;5034135;28;20069;-66
2022/11/11 02:49:01;;;;;;;13.40;6.57;;;2.60;99.90;;;;;;5026404;28;20033;-65
2022/11/11 02:51:27;;;;;;;14.10;7.22;;;2.60;99.90;;;;;;5031821;28;20029;-66
2022/11/11 02:53:57;;;;;;;14.23;7.25;;;2.70;99.90;;;;;;5032151;28;20037;-67
2022/11/11 02:59:08;;;;;;;14.45;6.63;;;2.70;99.90;;;;;;5043808;28;20064;-68
2022/11/11 03:01:33;;;;;;;12.82;6.53;;;2.60;99.90;;;;;;5045643;28;20064;-68
2022/11/11 03:03:59;;;;;;;14.25;6.85;;;2.50;99.90;;;;;;5027749;28;20034;-67
2022/11/11 03:06:24;;;;;;;13.93;6.85;;;2.50;99.90;;;;;;5035459;28;20096;-67
2022/11/11 03:08:50;;;;;;;14.30;6.88;;;2.50;99.90;;;;;;5035760;28;20462;-67
2022/11/11 03:11:26;;;;;;;14.40;6.43;;;2.60;99.90;;;;;;5026080;28;20053;-66
2022/11/11 03:13:52;;;;;;;12.55;6.63;;;2.60;99.90;;;;;;5011910;28;20113;-66
2022/11/11 03:19:19;;;;;;;15.18;5.72;;;2.50;99.90;;;;;;5002948;28;20034;-65
2022/11/11 03:21:44;;;;;;;16.20;6.50;;;2.50;99.90;;;;;;5041140;28;20048;-67
2022/11/11 03:24:10;;;;;;;12.75;6.57;;;2.60;99.90;;;;;;5050920;28;20500;-67
2022/11/11 03:26:36;;;;;;;13.85;7.07;;;2.70;99.90;;;;;;5030917;28;20497;-66
2022/11/11 03:29:03;;;;;;;16.30;7.15;;;2.60;99.90;;;;;;5030122;28;20029;-66
2022/11/11 03:31:28;;;;;;;14.40;7.20;;;2.60;99.90;;;;;;5040240;28;20526;-66
2022/11/11 03:33:54;;;;;;;14.70;6.90;;;2.60;99.90;;;;;;5044159;28;20148;-67
2022/11/11 03:38:14;;;;;;;15.07;7.35;;;2.50;99.90;;;;;;5041307;28;20886;-67
2022/11/11 03:39:05;;;;;;;13.48;7.40;;;2.40;99.90;;;;;;5049752;28;20114;-67
2022/11/11 03:41:31;;;;;;;17.20;6.88;;;2.40;99.90;;;;;;5044742;28;20061;-66
2022/11/11 03:43:56;;;;;;;15.65;7.47;;;2.40;99.90;;;;;;5031958;28;20094;-72
2022/11/11 03:46:22;;;;;;;13.50;7.18;;;2.30;99.90;;;;;;5043949;28;20033;-65
2022/11/11 03:48:47;;;;;;;14.50;7.60;;;2.30;99.90;;;;;;5030412;28;20037;-70
2022/11/11 03:51:13;;;;;;;16.85;7.75;;;2.30;99.90;;;;;;5042087;28;20484;-65
2022/11/11 03:53:39;;;;;;;16.20;8.15;;;2.30;99.90;;;;;;5050492;28;20032;-66
2022/11/11 03:56:04;;;;;;;16.30;8.13;;;2.30;99.90;;;;;;5026550;28;20037;-66
2022/11/11 03:58:30;;;;;;;17.60;7.82;;;2.30;99.90;;;;;;5034743;28;20033;-67
2022/11/11 04:00:56;;;;;;;15.82;7.53;;;2.30;99.90;;;;;;5042670;28;20040;-66
2022/11/11 04:11:43;;;;;;;14.15;6.72;;;2.20;99.90;;;;;;5034959;28;20040;-65
2022/11/11 04:16:55;;;;;;;14.55;6.78;;;2.20;99.90;;;;;;5037967;28;20515;-68
2022/11/11 04:22:05;;;;;;;13.95;7.05;;;2.20;99.90;;;;;;5034116;28;20473;-67
2022/11/11 04:27:17;;;;;;;12.77;6.60;;;2.20;99.90;;;;;;5030730;28;20443;-66
2022/11/11 04:29:45;;;;;;;13.45;6.40;;;2.20;99.90;;;;;;5044432;28;20091;-66
2022/11/11 04:35:07;;;;;;;14.68;6.88;;;2.20;99.90;;;;;;5027904;28;20068;-67
2022/11/11 04:37:48;;;;;;;13.07;6.53;;;2.20;99.90;;;;;;5029137;28;20033;-68
2022/11/11 04:42:59;;;;;;;10.88;6.05;;;2.00;99.90;;;;;;5009938;28;20124;-64
2022/11/11 04:45:27;;;;;;;12.32;5.93;;;2.00;99.90;;;;;;5022394;28;20488;-69
2022/11/11 04:47:58;;;;;;;12.00;6.05;;;2.00;99.90;;;;;;5032310;28;20048;-67
2022/11/11 04:50:27;;;;;;;14.50;7.00;;;2.10;99.90;;;;;;5029254;28;20401;-67
2022/11/11 04:52:53;;;;;;;15.30;6.65;;;2.10;99.90;;;;;;5029125;28;20032;-65
2022/11/11 04:58:03;;;;;;;13.15;6.25;;;2.20;99.90;;;;;;5020131;28;20104;-72
2022/11/11 05:00:29;;;;;;;14.50;6.50;;;2.20;99.90;;;;;;5031974;28;20762;-66
2022/11/11 05:03:15;;;;;;;14.63;6.00;;;2.10;99.90;;;;;;5035749;28;20637;-67
2022/11/11 05:11:16;;;;;;;11.65;6.13;;;1.90;99.90;;;;;;5026535;28;20040;-67
2022/11/11 05:22:30;;;;;;;22.80;9.48;;;1.90;99.90;;;;;;5032029;28;20056;-66
2022/11/11 05:27:40;;;;;;;19.27;7.00;;;1.80;99.90;;;;;;5034364;28;20108;-69
2022/11/11 05:30:08;;;;;;;17.33;8.15;;;1.90;99.90;;;;;;5026556;28;20029;-73
2022/11/11 05:32:34;;;;;;;16.83;8.10;;;1.90;99.90;;;;;;5041748;28;20036;-66
2022/11/11 05:35:00;;;;;;;18.42;6.63;;;1.80;99.90;;;;;;5034953;28;20029;-67
2022/11/11 05:37:25;;;;;;;11.65;5.97;;;1.80;99.90;;;;;;5030317;28;20025;-67
2022/11/11 05:39:51;;;;;;;14.63;7.22;;;1.80;99.90;;;;;;5028587;28;20029;-66
2022/11/11 05:42:17;;;;;;;14.38;6.90;;;1.80;99.90;;;;;;5022191;28;20100;-66
2022/11/11 05:44:43;;;;;;;15.20;7.32;;;1.80;99.90;;;;;;5028474;28;20044;-66
2022/11/11 05:47:08;;;;;;;13.73;7.47;;;1.80;99.90;;;;;;5026576;28;20470;-66
2022/11/11 05:49:34;;;;;;;16.95;7.43;;;1.90;99.90;;;;;;5033968;28;20030;-65
2022/11/11 05:52:00;;;;;;;15.52;7.53;;;1.90;99.90;;;;;;5041825;28;20516;-66
2022/11/11 05:54:25;;;;;;;14.15;7.40;;;1.90;99.90;;;;;;5026955;28;20059;-67
2022/11/11 05:56:51;;;;;;;17.55;7.32;;;1.90;99.90;;;;;;5046660;28;20033;-67
2022/11/11 05:59:17;;;;;;;15.23;7.57;;;1.90;99.90;;;;;;5027563;28;20022;-67
2022/11/11 06:01:43;;;;;;;16.55;8.05;;;1.90;99.90;;;;;;5028029;28;20890;-68
2022/11/11 06:04:09;;;;;;;18.15;8.65;;;1.90;99.90;;;;;;5026055;28;20764;-66
2022/11/11 06:06:35;;;;;;;19.02;8.73;;;1.80;99.90;;;;;;5035993;28;20088;-66
2022/11/11 06:09:02;;;;;;;20.00;8.85;;;1.80;99.90;;;;;;5046588;28;20037;-67
2022/11/11 06:11:28;;;;;;;19.95;8.23;;;1.80;99.90;;;;;;5030858;28;20032;-65
2022/11/11 06:13:54;;;;;;;17.48;8.35;;;1.80;99.90;;;;;;5033018;28;20029;-67
2022/11/11 06:16:19;;;;;;;18.02;8.38;;;1.80;99.90;;;;;;5036390;28;20056;-68
2022/11/11 06:18:45;;;;;;;18.25;8.25;;;1.80;99.90;;;;;;5032868;28;20033;-69
2022/11/11 06:21:11;;;;;;;15.80;7.82;;;1.70;99.90;;;;;;5023976;28;20484;-72
2022/11/11 06:23:37;;;;;;;14.75;7.57;;;1.70;99.90;;;;;;5026172;28;20042;-67
2022/11/11 06:26:11;;;;;;;17.90;8.65;;;1.70;99.90;;;;;;5038267;28;20548;-67
2022/11/11 06:28:46;;;;;;;18.05;8.48;;;1.70;99.90;;;;;;5038397;28;20033;-65
2022/11/11 06:31:20;;;;;;;19.50;8.45;;;1.70;99.90;;;;;;5027348;28;20029;-66
2022/11/11 06:33:46;;;;;;;20.45;9.48;;;1.70;99.90;;;;;;5036055;28;20028;-68
2022/11/11 06:36:13;;;;;;;22.10;9.18;;;1.70;99.90;;;;;;5030471;28;20483;-66
2022/11/11 06:38:40;;;;;;;20.08;9.10;;;1.70;99.90;;;;;;5042782;28;20037;-68
2022/11/11 06:41:07;;;;;;;18.67;8.65;;;1.80;99.90;;;;;;5027471;28;20112;-73
2022/11/11 06:43:33;;;;;;;20.60;8.57;;;1.80;99.90;;;;;;5037270;28;20105;-66
2022/11/11 06:45:59;;;;;;;18.40;8.32;;;1.80;99.90;;;;;;5028651;28;20124;-66
2022/11/11 06:48:26;;;;;;;18.15;9.07;;;1.80;99.90;;;;;;5048193;28;20112;-66
2022/11/11 06:50:53;;;;;;;18.83;8.40;;;1.80;99.90;;;;;;5051548;28;20032;-66
2022/11/11 06:53:20;;;;;;;16.52;8.18;;;1.90;99.90;;;;;;5045729;28;20033;-66
2022/11/11 06:55:45;;;;;;;15.07;7.10;;;2.00;99.90;;;;;;5037828;28;20540;-68
2022/11/11 06:58:16;;;;;;;12.05;6.78;;;2.10;99.90;;;;;;5043773;28;20053;-70
2022/11/11 07:00:42;;;;;;;;;;;2.20;99.90;;;;;;5047986;28;20063;-65
2022/11/11 07:03:10;;;;;;;11.40;6.10;;;2.20;99.90;;;;;;5043933;28;19960;-72
2022/11/11 07:05:36;;;;;;;15.07;6.78;;;2.20;99.90;;;;;;5045764;28;20358;-68
2022/11/11 07:08:04;;;;;;;15.02;7.03;;;2.20;99.90;;;;;;5048422;28;20108;-67
2022/11/11 07:10:31;;;;;;;13.35;6.72;;;2.20;99.90;;;;;;5044343;28;20099;-67
2022/11/11 07:12:57;;;;;;;14.15;7.40;;;2.10;99.90;;;;;;5042589;28;20068;-67
2022/11/11 07:15:22;;;;;;;14.40;6.43;;;2.20;99.90;;;;;;5032928;28;20064;-67
2022/11/11 07:17:48;;;;;;;13.88;6.97;;;2.20;99.90;;;;;;5045822;28;20029;-68
2022/11/11 07:20:14;;;;;;;20.15;7.40;;;2.30;99.90;;;;;;5042424;28;20053;-68
2022/11/11 07:22:39;;;;;;;14.80;6.80;;;2.40;99.90;;;;;;5040037;28;20057;-67
2022/11/11 07:25:05;;;;;;;16.10;7.43;;;2.50;99.90;;;;;;5036452;28;20044;-68
2022/11/11 07:27:31;;;;;;;17.90;8.10;;;2.60;99.90;;;;;;5041549;28;20040;-68
2022/11/11 07:29:57;;;;;;;18.77;7.20;;;2.60;99.90;;;;;;5033145;28;20049;-66
2022/11/11 07:32:22;;;;;;;14.75;6.68;;;2.60;99.90;;;;;;5047209;28;20087;-66
2022/11/11 07:34:51;;;;;;;13.55;6.43;;;2.60;99.90;;;;;;5038690;28;20029;-65
2022/11/11 07:37:16;;;;;;;16.35;6.65;;;2.60;99.90;;;;;;5034119;28;20497;-67
2022/11/11 07:39:42;;;;;;;18.23;7.05;;;2.60;99.90;;;;;;5049565;28;20119;-66
2022/11/11 07:42:07;;;;;;;12.15;6.18;;;2.70;99.90;;;;;;5049032;28;20033;-65
2022/11/11 07:44:33;;;;;;;14.00;6.28;;;2.70;99.90;;;;;;5029972;28;20526;-65
2022/11/11 07:46:59;;;;;;;14.32;6.20;;;2.80;99.90;;;;;;5051085;28;20033;-68
2022/11/11 07:49:24;;;;;;;18.67;9.15;;;2.80;99.90;;;;;;5047016;28;20056;-67
2022/11/11 07:51:50;;;;;;;19.67;9.68;;;2.90;99.90;;;;;;5039625;28;20083;-68
2022/11/11 07:54:16;;;;;;;22.70;9.15;;;2.90;99.90;;;;;;5025501;28;20108;-67
2022/11/11 07:56:41;;;;;;;20.42;9.95;;;2.90;99.90;;;;;;5033887;28;20037;-66
2022/11/11 07:59:07;;;;;;;18.88;10.40;;;2.90;99.90;;;;;;5029781;28;20068;-66
2022/11/11 08:01:33;;;;;;;21.23;10.68;;;3.10;99.90;;;;;;5035264;28;20028;-67
2022/11/11 08:03:58;;;;;;;19.98;9.95;;;3.10;99.90;;;;;;5017414;28;20030;-65
2022/11/11 08:06:24;;;;;;;15.05;7.82;;;3.10;99.90;;;;;;5035671;28;20382;-66
2022/11/11 08:08:50;;;;;;;16.98;8.02;;;3.10;99.90;;;;;;5037406;28;20043;-65
2022/11/11 08:11:16;;;;;;;18.27;8.57;;;3.20;99.90;;;;;;5024644;28;20037;-73
2022/11/11 08:13:43;;;;;;;18.23;8.40;;;3.20;99.90;;;;;;5028343;28;20084;-67
2022/11/11 08:16:14;;;;;;;20.23;9.10;;;3.30;99.90;;;;;;5019362;28;20049;-66
2022/11/11 08:18:40;;;;;;;18.10;8.15;;;3.50;99.90;;;;;;5036490;28;20063;-66
2022/11/11 08:21:06;;;;;;;16.75;8.15;;;3.50;99.90;;;;;;5034921;28;20076;-65
2022/11/11 08:23:33;;;;;;;17.88;8.88;;;3.60;99.90;;;;;;5046503;28;20126;-68
2022/11/11 08:26:04;;;;;;;15.70;7.45;;;3.70;99.90;;;;;;5029588;28;20037;-66
2022/11/11 08:28:32;;;;;;;14.13;7.35;;;3.60;99.90;;;;;;5027091;28;20486;-66
2022/11/11 08:30:59;;;;;;;14.25;7.07;;;3.70;99.90;;;;;;5026151;28;20017;-64
2022/11/11 08:33:25;;;;;;;16.30;7.78;;;3.80;99.90;;;;;;5032379;28;20096;-64
2022/11/11 08:35:53;;;;;;;18.15;7.68;;;3.90;99.90;;;;;;5024278;28;20025;-68
2022/11/11 08:38:22;;;;;;;16.08;8.35;;;4.00;99.90;;;;;;5034266;28;20059;-66
2022/11/11 08:40:49;;;;;;;16.48;8.40;;;4.10;99.90;;;;;;5016199;28;20470;-66
2022/11/11 08:43:14;;;;;;;16.23;8.50;;;4.30;99.90;;;;;;5019387;28;20034;-71
2022/11/11 08:45:40;;;;;;;16.75;8.38;;;4.50;99.90;;;;;;5031465;28;20044;-68
2022/11/11 08:48:09;;;;;;;15.98;7.80;;;4.70;99.90;;;;;;5048454;28;20029;-71
2022/11/11 08:50:39;;;;;;;15.98;8.27;;;4.80;99.90;;;;;;5014744;28;20030;-65
2022/11/11 08:53:06;;;;;;;;;;;5.00;99.90;;;;;;5027393;28;20112;-69
2022/11/11 08:55:32;;;;;;;17.13;8.00;;;5.30;99.90;;;;;;5036217;28;19916;-67
2022/11/11 08:58:03;;;;;;;20.60;9.30;;;5.50;99.90;;;;;;5012314;28;20105;-67
2022/11/11 09:00:30;;;;;;;19.17;9.73;;;5.70;99.90;;;;;;5023315;28;20116;-68
2022/11/11 09:03:00;;;;;;;16.55;8.80;;;5.90;99.90;;;;;;5016607;28;20033;-65
2022/11/11 09:05:26;;;;;;;;;;;6.30;99.90;;;;;;5021573;28;20597;-68
2022/11/11 09:07:51;;;;;;;18.52;8.45;;;6.50;99.90;;;;;;5013616;28;19964;-68
2022/11/11 09:10:17;;;;;;;16.38;8.35;;;6.80;99.90;;;;;;5018704;28;20029;-75
2022/11/11 09:12:43;;;;;;;17.05;9.07;;;7.10;99.90;;;;;;5027540;28;20029;-68
2022/11/11 09:15:09;;;;;;;20.05;9.52;;;7.30;99.90;;;;;;5028956;28;20117;-66
2022/11/11 09:17:34;;;;;;;19.02;8.38;;;7.50;99.90;;;;;;5036887;28;20029;-67
2022/11/11 09:20:00;;;;;;;17.30;8.27;;;7.70;99.90;;;;;;5032244;28;20501;-68
2022/11/11 09:22:26;;;;;;;16.50;7.90;;;7.90;99.90;;;;;;5028761;28;20075;-69
2022/11/11 09:24:51;;;;;;;16.40;8.38;;;8.20;99.90;;;;;;5027524;28;20056;-69
2022/11/11 09:27:17;;;;;;;17.50;7.70;;;8.30;99.90;;;;;;5029038;28;20037;-76
2022/11/11 09:29:43;;;;;;;18.85;8.32;;;8.50;99.90;;;;;;5026291;28;20116;-68
2022/11/11 09:32:09;;;;;;;14.95;7.72;;;8.60;99.90;;;;;;5019759;28;20094;-67
2022/11/11 09:34:34;;;;;;;19.38;8.60;;;8.80;99.90;;;;;;5016201;28;21705;-69
2022/11/11 09:37:00;;;;;;;17.05;8.48;;;8.90;99.90;;;;;;5009636;28;20033;-67
2022/11/11 09:39:26;;;;;;;18.13;8.30;;;8.90;99.90;;;;;;5007396;28;20037;-67
2022/11/11 09:42:16;;;;;;;17.35;8.07;;;9.00;99.90;;;;;;5038971;28;20033;-68
2022/11/11 09:44:44;;;;;;;16.63;7.60;;;9.10;99.90;;;;;;5030897;28;20052;-71
2022/11/11 09:47:45;;;;;;;19.35;8.45;;;9.20;99.90;;;;;;5026518;28;20335;-69
2022/11/11 09:50:14;;;;;;;15.88;8.10;;;9.30;99.90;;;;;;5027018;28;20502;-71
2022/11/11 09:52:58;;;;;;;19.33;8.60;;;9.40;99.90;;;;;;5042767;28;20094;-68
2022/11/11 09:55:44;;;;;;;22.52;8.65;;;9.40;99.90;;;;;;5037034;28;20094;-69
2022/11/11 09:58:23;;;;;;;20.40;8.43;;;9.60;99.90;;;;;;5021643;28;20457;-70
2022/11/11 10:01:13;;;;;;;17.45;8.70;;;9.80;99.90;;;;;;5024360;28;20037;-72
2022/11/11 10:03:49;;;;;;;19.25;8.80;;;10.00;99.90;;;;;;5036439;28;20162;-66
2022/11/11 10:06:25;;;;;;;18.83;9.13;;;10.20;99.90;;;;;;5013097;28;20041;-68
2022/11/11 10:09:01;;;;;;;13.63;8.43;;;10.50;99.90;;;;;;5023809;28;20144;-68
2022/11/11 10:11:37;;;;;;;14.77;8.02;;;10.80;99.90;;;;;;5033473;28;20086;-69
2022/11/11 10:14:03;;;;;;;13.45;7.95;;;11.20;99.90;;;;;;5037174;28;20030;-67
2022/11/11 10:17:10;;;;;;;14.63;8.02;;;11.30;99.90;;;;;;5029985;28;20044;-68
2022/11/11 10:19:49;;;;;;;16.50;8.20;;;11.50;99.90;;;;;;5016625;28;20045;-68
2022/11/11 10:22:21;;;;;;;13.82;7.95;;;11.60;99.90;;;;;;5026209;28;20058;-70
2022/11/11 10:25:13;;;;;;;13.00;7.28;;;11.80;99.90;;;;;;5012071;28;20112;-68
2022/11/11 10:27:44;;;;;;;14.43;6.90;;;11.90;99.90;;;;;;5023018;28;20041;-69
2022/11/11 10:30:30;;;;;;;13.35;7.40;;;12.10;99.90;;;;;;5029226;28;20029;-71
2022/11/11 10:33:05;;;;;;;14.23;8.00;;;12.20;99.90;;;;;;5030392;28;20478;-68
2022/11/11 10:35:32;;;;;;;14.52;8.10;;;12.40;99.90;;;;;;5030351;28;20037;-70
2022/11/11 10:38:10;;;;;;;14.75;7.93;;;12.50;99.90;;;;;;5020749;28;20046;-67
2022/11/11 10:40:52;;;;;;;13.88;7.78;;;12.60;99.90;;;;;;5012443;28;20033;-69
2022/11/11 10:43:22;;;;;;;14.27;7.63;;;12.70;99.90;;;;;;5018863;28;20033;-67
2022/11/11 10:45:56;;;;;;;14.52;7.57;;;12.70;99.90;;;;;;5021057;28;20052;-69
2022/11/11 10:48:32;;;;;;;13.35;6.97;;;12.70;99.90;;;;;;5011871;28;20463;-74
2022/11/11 10:51:01;;;;;;;12.18;6.65;;;12.70;99.90;;;;;;5024096;28;20052;-70
2022/11/11 10:53:49;;;;;;;12.90;6.65;;;12.90;99.90;;;;;;5021861;28;20087;-68
2022/11/11 10:56:34;;;;;;;12.52;6.95;;;13.00;99.90;;;;;;5035848;28;20049;-72
2022/11/11 10:59:07;;;;;;;14.40;6.68;;;13.20;99.90;;;;;;5012702;28;20402;-69
2022/11/11 11:02:14;;;;;;;15.00;7.00;;;13.20;99.90;;;;;;5015052;28;20368;-68
2022/11/11 11:04:56;;;;;;;13.02;6.78;;;13.10;99.90;;;;;;5017720;28;20050;-69
2022/11/11 11:07:33;;;;;;;16.33;6.78;;;13.10;99.90;;;;;;5025813;28;20040;-76
2022/11/11 11:10:05;;;;;;;14.68;6.80;;;13.20;99.90;;;;;;5041738;28;20144;-66
2022/11/11 11:12:51;;;;;;;13.57;6.47;;;13.40;99.90;;;;;;5036391;28;20398;-67
2022/11/11 11:15:21;;;;;;;16.27;6.22;;;13.60;99.90;;;;;;5017883;28;20083;-68
2022/11/11 11:17:55;;;;;;;12.98;6.05;;;13.70;99.90;;;;;;5009454;28;20030;-65
2022/11/11 11:20:21;;;;;;;12.38;5.68;;;13.80;99.90;;;;;;5044140;28;20030;-68
2022/11/11 11:22:52;;;;;;;11.73;6.50;;;13.90;99.90;;;;;;5028383;28;20050;-66
2022/11/11 11:25:20;;;;;;;12.75;6.25;;;14.10;99.90;;;;;;5026091;28;20033;-68
2022/11/11 11:27:48;;;;;;;11.70;5.43;;;14.30;99.90;;;;;;5012989;28;20673;-71
2022/11/11 11:30:16;;;;;;;9.38;5.18;;;14.60;99.90;;;;;;5025436;28;20037;-67
2022/11/11 11:32:55;;;;;;;10.02;5.43;;;14.80;99.90;;;;;;5009891;28;20034;-67
2022/11/11 11:35:43;;;;;;;12.98;5.18;;;14.90;99.90;;;;;;5022316;28;20053;-69
2022/11/11 11:38:11;;;;;;;9.73;4.80;;;15.00;99.90;;;;;;5021296;28;20470;-67
2022/11/11 11:40:57;;;;;;;9.00;4.60;;;15.10;99.90;;;;;;5035540;28;20037;-69
2022/11/11 11:43:23;;;;;;;9.95;4.90;;;15.00;99.90;;;;;;5020149;28;20056;-68
2022/11/11 11:46:01;;;;;;;11.68;4.93;;;14.90;99.90;;;;;;5035969;28;20036;-73
2022/11/11 11:48:29;;;;;;;11.18;4.75;;;14.60;99.90;;;;;;5024160;28;20039;-75
2022/11/11 11:51:04;;;;;;;11.73;5.00;;;14.60;99.90;;;;;;5028157;28;20037;-69
2022/11/11 11:53:47;;;;;;;14.82;5.53;;;14.80;99.90;;;;;;5010864;28;20044;-72
2022/11/11 11:56:31;;;;;;;10.52;5.43;;;15.00;99.90;;;;;;5014470;28;20109;-68
2022/11/11 11:58:57;;;;;;;10.95;4.32;;;15.10;99.90;;;;;;5016017;28;20429;-69
2022/11/11 12:01:54;;;;;;;7.15;4.43;;;15.10;99.90;;;;;;5031202;28;20033;-67
2022/11/11 12:04:32;;;;;;;9.73;4.43;;;15.40;99.90;;;;;;5025070;28;20045;-70
2022/11/11 12:07:12;;;;;;;8.00;4.45;;;15.70;99.90;;;;;;5023252;28;20091;-71
2022/11/11 12:09:59;;;;;;;8.95;4.20;;;15.90;99.90;;;;;;5020995;28;20037;-67
2022/11/11 12:12:31;;;;;;;10.23;4.03;;;16.10;99.90;;;;;;5032602;28;20024;-70
2022/11/11 12:15:22;;;;;;;10.85;4.40;;;16.10;99.90;;;;;;5020683;28;20033;-71
2022/11/11 12:18:11;;;;;;;12.45;5.10;;;15.70;99.90;;;;;;5025905;28;20034;-67
2022/11/11 12:20:49;;;;;;;15.88;4.50;;;15.50;99.90;;;;;;5016226;28;20037;-70
2022/11/11 12:23:55;;;;;;;17.48;4.95;;;15.30;99.90;;;;;;5019379;28;20061;-67
2022/11/11 12:26:45;;;;;;;16.55;4.30;;;15.30;99.90;;;;;;5033413;28;20909;-68
2022/11/11 12:29:33;;;;;;;12.57;3.95;;;15.60;99.90;;;;;;5017642;28;20459;-69
2022/11/11 12:32:17;;;;;;;10.98;3.42;;;15.90;99.90;;;;;;5016704;28;20025;-69
2022/11/11 12:35:05;;;;;;;7.93;4.40;;;16.10;99.90;;;;;;5017722;28;20044;-68
2022/11/11 12:37:34;;;;;;;9.20;4.05;;;16.10;99.90;;;;;;5020435;28;20040;-74
2022/11/11 12:40:21;;;;;;;10.00;4.20;;;16.20;99.90;;;;;;5019849;28;20039;-71
2022/11/11 12:43:24;;;;;;;6.55;3.70;;;16.10;99.90;;;;;;5018754;28;20107;-70
2022/11/11 12:46:08;;;;;;;9.98;3.83;;;16.00;99.90;;;;;;5018722;28;20038;-69
2022/11/11 12:48:49;;;;;;;6.25;3.22;;;15.80;99.90;;;;;;5019531;28;20040;-72
2022/11/11 12:51:14;;;;;;;;;;;15.90;99.90;;;;;;5020759;28;20025;-72
2022/11/11 12:53:49;;;;;;;8.15;3.13;;;15.90;99.90;;;;;;5019283;28;19970;-72
2022/11/11 12:56:20;;;;;;;9.30;3.25;;;15.80;99.90;;;;;;5020002;28;20033;-67
2022/11/11 12:59:23;;;;;;;6.53;3.20;;;15.90;99.90;;;;;;5019904;28;20575;-68
2022/11/11 13:02:18;;;;;;;8.40;2.88;;;16.30;99.90;;;;;;5019700;28;20536;-70
2022/11/11 13:04:54;;;;;;;11.65;3.28;;;16.60;99.90;;;;;;5020459;28;20025;-67
2022/11/11 13:07:47;;;;;;;6.15;2.85;;;16.70;99.90;;;;;;5019376;28;20029;-71
2022/11/11 13:10:16;;;;;;;5.60;2.25;;;16.60;99.90;;;;;;5018443;28;20695;-67
2022/11/11 13:13:06;;;;;;;6.93;2.67;;;16.60;99.90;;;;;;5019897;28;20030;-71
2022/11/11 13:15:32;;;;;;;7.78;2.78;;;16.70;99.90;;;;;;5018686;28;20489;-72
2022/11/11 13:18:01;;;;;;;5.10;2.28;;;16.80;99.90;;;;;;5018486;28;20220;-69
2022/11/11 13:20:52;;;;;;;6.75;2.22;;;16.70;99.90;;;;;;5020554;28;20037;-69
2022/11/11 13:23:18;;;;;;;5.25;1.98;;;16.60;99.90;;;;;;5019518;28;20159;-70
2022/11/11 13:25:47;;;;;;;6.72;2.20;;;16.60;99.90;;;;;;5017667;28;20044;-68
2022/11/11 13:28:32;;;;;;;6.95;1.98;;;16.70;99.90;;;;;;5019562;28;20117;-71
2022/11/11 13:31:12;;;;;;;6.97;2.58;;;16.90;99.90;;;;;;5019730;28;20037;-69
2022/11/11 13:33:48;;;;;;;;;;;16.90;99.90;;;;;;5018940;28;20191;-71
2022/11/11 13:36:19;;;;;;;3.83;1.70;;;16.70;99.90;;;;;;5019764;28;20453;-69
2022/11/11 13:38:50;;;;;;;4.25;1.80;;;16.60;99.90;;;;;;5018470;28;20095;-70
2022/11/11 13:41:32;;;;;;;3.70;2.20;;;16.60;99.90;;;;;;5019625;28;20042;-67
2022/11/11 13:44:02;;;;;;;4.32;1.85;;;16.50;99.90;;;;;;5018681;28;20977;-71
2022/11/11 13:46:44;;;;;;;5.40;2.07;;;16.50;99.90;;;;;;5020720;28;20144;-66
2022/11/11 13:49:40;;;;;;;3.67;1.85;;;16.50;99.90;;;;;;5020605;28;20041;-67
2022/11/11 13:52:21;;;;;;;3.75;2.00;;;16.40;99.90;;;;;;5019168;28;20048;-69
2022/11/11 13:54:59;;;;;;;3.60;1.45;;;16.30;99.90;;;;;;5017808;28;20029;-68
2022/11/11 13:57:28;;;;;;;5.15;2.08;;;16.20;99.90;;;;;;5019336;28;20043;-68
2022/11/11 14:00:22;;;;;;;4.85;1.88;;;16.20;99.90;;;;;;5018031;28;20122;-69
2022/11/11 14:03:17;;;;;;;3.30;2.05;;;16.40;99.90;;;;;;5016924;28;20036;-67
2022/11/11 14:05:43;;;;;;;6.32;2.10;;;16.50;99.90;;;;;;5017279;28;20437;-66
2022/11/11 14:08:09;;;;;;;3.90;1.85;;;16.50;99.90;;;;;;5018687;28;20057;-69
2022/11/11 14:10:34;;;;;;;7.95;2.17;;;16.40;99.90;;;;;;5017185;28;20474;-72
2022/11/11 14:13:25;;;;;;;6.07;2.80;;;16.30;99.90;;;;;;5021895;28;20090;-68
2022/11/11 14:15:53;;;;;;;7.43;2.60;;;16.10;99.90;;;;;;5026424;28;20479;-67
2022/11/11 14:18:18;;;;;;;4.45;2.50;;;15.90;99.90;;;;;;5028387;28;20044;-66